UAE858 OBBI-OMDB
Flight info
| Callsign | UAE858 |
|---|---|
| Flight time | N/A |
| Altitude | 25000 |
| Route | BHR345/30R BHR N697 SODAK P559 VUTEB VUTEB4D/30L |
| Aircraft | A359/H-SDE2E3GHIJ3J4J5LM1ORWXY/LB1D1 |
Departure
| Time | N/A |
|---|---|
| Airport | Bahrain International Airport (OBBI) |
Arrival
| Time | 2026-04-25 14:04 |
|---|---|
| Airport | Dubai International Airport (OMDB) |
| Time | Latitude | Longitude | Altitude | Speed | Heading |
|---|---|---|---|---|---|
| 2026-04-25 13:42 | 25.71584 | 54.13737 | 24092 ft | 511 kts | 110° |
| 2026-04-25 13:42 | 25.70473 | 54.17464 | 23392 ft | 507 kts | 110° |
| 2026-04-25 13:42 | 25.69361 | 54.21164 | 22628 ft | 501 kts | 111° |
| 2026-04-25 13:42 | 25.68256 | 54.24799 | 21945 ft | 494 kts | 111° |
| 2026-04-25 13:43 | 25.67158 | 54.28384 | 21307 ft | 487 kts | 111° |
| 2026-04-25 13:43 | 25.66073 | 54.31904 | 20682 ft | 479 kts | 111° |
| 2026-04-25 13:43 | 25.65002 | 54.35370 | 20049 ft | 472 kts | 111° |
| 2026-04-25 13:43 | 25.63949 | 54.38770 | 19310 ft | 458 kts | 111° |
| 2026-04-25 13:44 | 25.62919 | 54.42106 | 18466 ft | 456 kts | 110° |
| 2026-04-25 13:44 | 25.62172 | 54.45494 | 17853 ft | 451 kts | 101° |
| 2026-04-25 13:44 | 25.61895 | 54.48947 | 17085 ft | 448 kts | 94° |
| 2026-04-25 13:44 | 25.61788 | 54.52389 | 16312 ft | 444 kts | 93° |
| 2026-04-25 13:45 | 25.61721 | 54.55760 | 15253 ft | 430 kts | 92° |
| 2026-04-25 13:45 | 25.61667 | 54.59020 | 14418 ft | 413 kts | 92° |
| 2026-04-25 13:45 | 25.61621 | 54.62086 | 14089 ft | 383 kts | 92° |
| 2026-04-25 13:45 | 25.61579 | 54.64923 | 13853 ft | 354 kts | 92° |
| 2026-04-25 13:46 | 25.61541 | 54.67549 | 13668 ft | 328 kts | 92° |
| 2026-04-25 13:46 | 25.61505 | 54.69957 | 13499 ft | 304 kts | 92° |
| 2026-04-25 13:46 | 25.61472 | 54.72213 | 13356 ft | 284 kts | 92° |
| 2026-04-25 13:46 | 25.61438 | 54.74365 | 13231 ft | 275 kts | 92° |
| 2026-04-25 13:47 | 25.61406 | 54.76465 | 13101 ft | 272 kts | 92° |
| 2026-04-25 13:47 | 25.61372 | 54.78569 | 12972 ft | 273 kts | 92° |
| 2026-04-25 13:47 | 25.61339 | 54.80686 | 12532 ft | 278 kts | 92° |
| 2026-04-25 13:47 | 25.61305 | 54.82867 | 11972 ft | 286 kts | 92° |
| 2026-04-25 13:48 | 25.61206 | 54.85074 | 11528 ft | 288 kts | 97° |
| 2026-04-25 13:48 | 25.60820 | 54.87241 | 11124 ft | 286 kts | 108° |
| 2026-04-25 13:48 | 25.60126 | 54.89306 | 10752 ft | 286 kts | 114° |
| 2026-04-25 13:48 | 25.59340 | 54.91321 | 10376 ft | 285 kts | 115° |
| 2026-04-25 13:49 | 25.58546 | 54.93338 | 10018 ft | 285 kts | 114° |
| 2026-04-25 13:49 | 25.57757 | 54.95347 | 9639 ft | 284 kts | 114° |
| 2026-04-25 13:49 | 25.56981 | 54.97332 | 9263 ft | 283 kts | 114° |
| 2026-04-25 13:49 | 25.56200 | 54.99330 | 8880 ft | 281 kts | 114° |
| 2026-04-25 13:50 | 25.55427 | 55.01309 | 8519 ft | 279 kts | 114° |
| 2026-04-25 13:50 | 25.54631 | 55.03265 | 8187 ft | 276 kts | 117° |
| 2026-04-25 13:50 | 25.53721 | 55.05124 | 8046 ft | 275 kts | 121° |
| 2026-04-25 13:50 | 25.52768 | 55.06965 | 8020 ft | 276 kts | 121° |
| 2026-04-25 13:51 | 25.51822 | 55.08785 | 8004 ft | 275 kts | 121° |
| 2026-04-25 13:51 | 25.50865 | 55.10625 | 8019 ft | 275 kts | 121° |
| 2026-04-25 13:51 | 25.49909 | 55.12467 | 8022 ft | 275 kts | 121° |
| 2026-04-25 13:51 | 25.48953 | 55.14305 | 8006 ft | 275 kts | 121° |
| 2026-04-25 13:52 | 25.48000 | 55.16141 | 8020 ft | 275 kts | 121° |
| 2026-04-25 13:52 | 25.47046 | 55.17976 | 8016 ft | 275 kts | 121° |
| 2026-04-25 13:52 | 25.46040 | 55.19750 | 8013 ft | 274 kts | 127° |
| 2026-04-25 13:52 | 25.44841 | 55.21387 | 8013 ft | 273 kts | 133° |
| 2026-04-25 13:53 | 25.43576 | 55.22950 | 8014 ft | 273 kts | 134° |
| 2026-04-25 13:53 | 25.42295 | 55.24513 | 8014 ft | 272 kts | 133° |
| 2026-04-25 13:53 | 25.41027 | 55.26064 | 8015 ft | 272 kts | 133° |
| 2026-04-25 13:53 | 25.39770 | 55.27604 | 8013 ft | 273 kts | 134° |
| 2026-04-25 13:54 | 25.38496 | 55.29165 | 8013 ft | 273 kts | 133° |
| 2026-04-25 13:54 | 25.37239 | 55.30706 | 8009 ft | 261 kts | 134° |
| 2026-04-25 13:54 | 25.35981 | 55.32092 | 8025 ft | 257 kts | 141° |
| 2026-04-25 13:54 | 25.34513 | 55.33298 | 7964 ft | 265 kts | 150° |
| 2026-04-25 13:55 | 25.32935 | 55.34286 | 7594 ft | 264 kts | 154° |
| 2026-04-25 13:55 | 25.31324 | 55.35221 | 7193 ft | 266 kts | 154° |
| 2026-04-25 13:55 | 25.29638 | 55.36196 | 6812 ft | 266 kts | 154° |
| 2026-04-25 13:55 | 25.28019 | 55.37137 | 6460 ft | 266 kts | 154° |
| 2026-04-25 13:56 | 25.26387 | 55.38088 | 6118 ft | 264 kts | 154° |
| 2026-04-25 13:56 | 25.24767 | 55.39034 | 6020 ft | 264 kts | 154° |
| 2026-04-25 13:56 | 25.23133 | 55.39990 | 6016 ft | 266 kts | 154° |
| 2026-04-25 13:56 | 25.21498 | 55.40946 | 6021 ft | 266 kts | 153° |
| 2026-04-25 13:57 | 25.19865 | 55.41901 | 6018 ft | 265 kts | 154° |
| 2026-04-25 13:57 | 25.19333 | 55.42212 | 6008 ft | 266 kts | 154° |
| 2026-04-25 13:57 | 25.16646 | 55.43789 | 5617 ft | 257 kts | 154° |
| 2026-04-25 13:57 | 25.15096 | 55.44696 | 5436 ft | 248 kts | 154° |
| 2026-04-25 13:58 | 25.13591 | 55.45592 | 5202 ft | 243 kts | 152° |
| 2026-04-25 13:58 | 25.12184 | 55.46618 | 4913 ft | 242 kts | 144° |
| 2026-04-25 13:58 | 25.10923 | 55.47875 | 4528 ft | 245 kts | 134° |
| 2026-04-25 13:58 | 25.09870 | 55.49340 | 4279 ft | 241 kts | 124° |
| 2026-04-25 13:59 | 25.09183 | 55.51017 | 3897 ft | 241 kts | 98° |
| 2026-04-25 13:59 | 25.09331 | 55.52811 | 3589 ft | 234 kts | 65° |
| 2026-04-25 13:59 | 25.10266 | 55.54206 | 3278 ft | 225 kts | 33° |
| 2026-04-25 13:59 | 25.11660 | 55.54797 | 2973 ft | 217 kts | 2° |
| 2026-04-25 14:00 | 25.12171 | 55.54786 | 2854 ft | 216 kts | 351° |
| 2026-04-25 14:00 | 25.14410 | 55.53835 | 2568 ft | 199 kts | 333° |
| 2026-04-25 14:00 | 25.15606 | 55.53171 | 2429 ft | 186 kts | 331° |
| 2026-04-25 14:00 | 25.16316 | 55.52638 | 2259 ft | 181 kts | 316° |
| 2026-04-25 14:01 | 25.17049 | 55.51547 | 2050 ft | 181 kts | 302° |
| 2026-04-25 14:01 | 25.17682 | 55.50327 | 2030 ft | 184 kts | 301° |
| 2026-04-25 14:01 | 25.18310 | 55.49092 | 1937 ft | 183 kts | 301° |
| 2026-04-25 14:01 | 25.18945 | 55.47887 | 1707 ft | 181 kts | 302° |
| 2026-04-25 14:02 | 25.19599 | 55.46711 | 1477 ft | 177 kts | 303° |
| 2026-04-25 14:02 | 25.20225 | 55.45582 | 1254 ft | 169 kts | 303° |
| 2026-04-25 14:02 | 25.20828 | 55.44489 | 1038 ft | 164 kts | 303° |
| 2026-04-25 14:02 | 25.21221 | 55.43776 | 879 ft | 164 kts | 304° |
| 2026-04-25 14:03 | 25.22000 | 55.42372 | 592 ft | 157 kts | 302° |
| 2026-04-25 14:03 | 25.22533 | 55.41374 | 417 ft | 143 kts | 305° |
| 2026-04-25 14:03 | 25.23032 | 55.40484 | 261 ft | 129 kts | 304° |
| 2026-04-25 14:03 | 25.23491 | 55.39662 | 103 ft | 125 kts | 302° |
| 2026-04-25 14:04 | 25.23938 | 55.38849 | 34 ft | 122 kts | 302° |
| 2026-04-25 14:04 | 25.24326 | 55.38163 | 33 ft | 88 kts | 300° |
| 2026-04-25 14:04 | 25.24569 | 55.37722 | 28 ft | 46 kts | 301° |
| 2026-04-25 14:04 | 25.24711 | 55.37462 | 28 ft | 37 kts | 299° |
| 2026-04-25 14:05 | 25.24781 | 55.37211 | 30 ft | 30 kts | 273° |
| 2026-04-25 14:05 | 25.24785 | 55.37097 | 29 ft | 11 kts | 272° |
| 2026-04-25 14:05 | 25.24788 | 55.37043 | 29 ft | 0 kts | 273° |
| 2026-04-25 14:06 | 25.24788 | 55.37039 | 29 ft | 2 kts | 273° |